createdAt,value
2023-04-05T00:02:11.116Z,93623.03
2023-04-05T00:04:38.966Z,93637.28
2023-04-05T00:07:08.414Z,93626.19
2023-04-05T00:09:35.102Z,93627.28
2023-04-05T00:12:02.240Z,93626.28
2023-04-05T00:14:28.860Z,93626.97
2023-04-05T00:16:55.824Z,93626.75
2023-04-05T00:19:23.330Z,93617.06
2023-04-05T00:21:50.277Z,93623.38
2023-04-05T00:24:16.977Z,93624.88
2023-04-05T00:26:44.268Z,93612.88
2023-04-05T00:29:11.026Z,93621.34
2023-04-05T00:31:37.829Z,93626.91
2023-04-05T00:34:09.016Z,93630.31
2023-04-05T00:36:36.364Z,93629.75
2023-04-05T00:39:03.114Z,93630.91
2023-04-05T00:41:29.764Z,93630.75
2023-04-05T00:43:57.181Z,93631.25
2023-04-05T00:46:24.118Z,93635.38
2023-04-05T00:48:50.968Z,93626.50
2023-04-05T00:51:20.270Z,93624.50
2023-04-05T00:53:48.269Z,93627.16
2023-04-05T00:56:15.366Z,93635.69
2023-04-05T00:58:42.718Z,93641.56
2023-04-05T01:01:18.015Z,93642.16
2023-04-05T01:04:00.460Z,93634.63
2023-04-05T01:06:54.979Z,93629.91
2023-04-05T01:09:45.633Z,93633.31
2023-04-05T01:12:17.889Z,93636.91
2023-04-05T01:14:50.266Z,93630.19
2023-04-05T01:17:22.552Z,93633.78
2023-04-05T01:19:53.589Z,93639.06
2023-04-05T01:22:32.045Z,93634.94
2023-04-05T01:25:14.760Z,93648.16
2023-04-05T01:28:07.362Z,93642.53
2023-04-05T01:30:37.915Z,93637.50
2023-04-05T01:33:25.887Z,93646.72
2023-04-05T01:36:01.493Z,93640.22
2023-04-05T01:38:28.753Z,93646.72
2023-04-05T01:40:55.993Z,93647.84
2023-04-05T01:43:23.021Z,93639.81
2023-04-05T01:45:49.664Z,93643.81
2023-04-05T01:48:16.406Z,93643.25
2023-04-05T01:50:43.612Z,93643.81
2023-04-05T01:53:10.596Z,93643.97
2023-04-05T01:55:37.242Z,93639.75
2023-04-05T01:58:04.149Z,93637.75
2023-04-05T02:00:30.917Z,93640.81
2023-04-05T02:02:57.772Z,93637.81
2023-04-05T02:05:24.436Z,93644.31
2023-04-05T02:07:51.288Z,93636.50
2023-04-05T02:10:20.669Z,93641.84
2023-04-05T02:12:47.329Z,93637.81
2023-04-05T02:15:14.249Z,93638.50
2023-04-05T02:17:45.819Z,93638.09
2023-04-05T02:20:14.489Z,93643.63
2023-04-05T02:22:45.159Z,93638.84
2023-04-05T02:25:12.933Z,93645.72
2023-04-05T02:27:39.649Z,93642.13
2023-04-05T02:30:07.180Z,93645.94
2023-04-05T02:32:33.924Z,93653.22
2023-04-05T02:35:00.555Z,93648.19
2023-04-05T02:37:27.345Z,93640.75
2023-04-05T02:39:54.557Z,93634.75
2023-04-05T02:42:21.148Z,93635.53
2023-04-05T02:44:47.757Z,93637.28
2023-04-05T02:47:21.285Z,93633.47
2023-04-05T02:49:51.379Z,93631.69
2023-04-05T02:52:17.974Z,93634.41
2023-04-05T02:54:44.874Z,93633.63
2023-04-05T02:57:11.719Z,93639.06
2023-04-05T02:59:39.666Z,93642.94
2023-04-05T03:02:06.939Z,93639.97
2023-04-05T03:04:34.909Z,93641.66
2023-04-05T03:07:05.313Z,93634.06
2023-04-05T03:09:33.689Z,93631.72
2023-04-05T03:12:02.254Z,93635.31
2023-04-05T03:14:29.007Z,93634.69
2023-04-05T03:16:55.760Z,93630.22
2023-04-05T03:19:24.310Z,93633.50
2023-04-05T03:21:50.901Z,93639.84
2023-04-05T03:24:17.463Z,93634.72
2023-04-05T03:26:46.618Z,93632.16
2023-04-05T03:29:14.751Z,93627.47
2023-04-05T03:31:42.803Z,93633.19
2023-04-05T03:34:10.703Z,93636.09
2023-04-05T03:36:46.758Z,93637.44
2023-04-05T03:39:14.484Z,93631.81
2023-04-05T03:41:42.083Z,93640.31
2023-04-05T03:44:09.487Z,93636.69
2023-04-05T03:46:38.248Z,93644.19
2023-04-05T03:49:06.236Z,93647.25
2023-04-05T03:51:33.496Z,93653.22
2023-04-05T03:54:00.408Z,93644.28
2023-04-05T03:56:27.315Z,93649.09
2023-04-05T03:58:54.104Z,93646.91
2023-04-05T04:01:20.909Z,93648.31
2023-04-05T04:03:47.538Z,93650.75
2023-04-05T04:06:14.985Z,93648.81
2023-04-05T04:08:43.042Z,93650.91
2023-04-05T04:11:09.697Z,93647.63
2023-04-05T04:13:36.284Z,93649.94
2023-04-05T04:16:04.061Z,93655.97
2023-04-05T04:18:30.812Z,93654.88
2023-04-05T04:20:58.751Z,93655.53
2023-04-05T04:23:27.265Z,93655.75
2023-04-05T04:25:55.016Z,93651.66
2023-04-05T04:28:25.189Z,93670.06
2023-04-05T04:30:51.862Z,93669.38
2023-04-05T04:33:20.070Z,93675.09
2023-04-05T04:35:49.429Z,93671.69
2023-04-05T04:38:18.727Z,93660.00
2023-04-05T04:40:50.917Z,93667.75
2023-04-05T04:43:17.731Z,93673.03
2023-04-05T04:45:48.625Z,93676.50
2023-04-05T04:48:16.672Z,93676.16
2023-04-05T04:50:44.264Z,93688.03
2023-04-05T04:53:12.014Z,93672.91
2023-04-05T04:55:42.338Z,93684.19
2023-04-05T04:58:10.848Z,93676.28
2023-04-05T05:00:45.588Z,93676.28
2023-04-05T05:03:12.951Z,93676.06
2023-04-05T05:05:44.320Z,93681.66
2023-04-05T05:08:11.748Z,93673.25
2023-04-05T05:10:38.599Z,93674.19
2023-04-05T05:13:05.639Z,93669.59
2023-04-05T05:15:32.380Z,93679.88
2023-04-05T05:17:59.227Z,93680.50
2023-04-05T05:20:27.327Z,93687.88
2023-04-05T05:22:54.933Z,93687.13
2023-04-05T05:25:22.214Z,93685.94
2023-04-05T05:27:51.059Z,93686.22
2023-04-05T05:30:18.988Z,93692.31
2023-04-05T05:32:45.591Z,93694.28
2023-04-05T05:35:12.263Z,93695.06
2023-04-05T05:37:39.092Z,93689.38
2023-04-05T05:40:06.440Z,93691.22
2023-04-05T05:42:34.022Z,93682.66
2023-04-05T05:45:06.400Z,93682.81
2023-04-05T05:47:33.163Z,93684.94
2023-04-05T05:49:59.805Z,93685.41
2023-04-05T05:52:26.805Z,93674.09
2023-04-05T05:54:53.458Z,93678.75
2023-04-05T05:57:20.188Z,93683.25
2023-04-05T05:59:46.825Z,93682.97
2023-04-05T06:02:13.559Z,93685.06
2023-04-05T06:04:40.612Z,93684.19
2023-04-05T06:07:07.442Z,93687.59
2023-04-05T06:09:35.449Z,93690.06
2023-04-05T06:12:03.051Z,93692.13
2023-04-05T06:14:32.638Z,93695.28
2023-04-05T06:16:59.349Z,93690.78
2023-04-05T06:19:26.135Z,93700.59
2023-04-05T06:21:52.822Z,93699.50
2023-04-05T06:24:19.493Z,93699.63
2023-04-05T06:26:46.113Z,93688.53
2023-04-05T06:29:12.858Z,93694.91
2023-04-05T06:31:41.620Z,93699.25
2023-04-05T06:34:08.336Z,93704.09
2023-04-05T06:36:35.174Z,93708.28
2023-04-05T06:39:01.906Z,93701.00
2023-04-05T06:41:28.630Z,93701.00
2023-04-05T06:43:56.452Z,93703.53
2023-04-05T06:46:24.072Z,93711.66
2023-04-05T06:48:52.423Z,93720.31
2023-04-05T06:51:19.886Z,93725.13
2023-04-05T06:53:46.572Z,93720.31
2023-04-05T06:56:13.254Z,93721.91
2023-04-05T06:58:40.092Z,93731.41
2023-04-05T07:01:07.591Z,93739.38
2023-04-05T07:03:34.422Z,93743.34
2023-04-05T07:06:01.512Z,93748.81
2023-04-05T07:08:29.617Z,93743.22
2023-04-05T07:10:56.399Z,93740.09
2023-04-05T07:13:24.799Z,93746.94
2023-04-05T07:15:52.586Z,93750.97
2023-04-05T07:18:19.634Z,93741.84
2023-04-05T07:20:49.473Z,93754.72
2023-04-05T07:23:16.709Z,93753.47
2023-04-05T07:25:43.555Z,93758.44
2023-04-05T07:28:10.185Z,93757.19
2023-04-05T07:30:37.086Z,93758.91
2023-04-05T07:33:03.959Z,93767.72
2023-04-05T07:35:30.856Z,93759.13
2023-04-05T07:37:57.500Z,93762.88
2023-04-05T07:40:24.201Z,93772.75
2023-04-05T07:42:50.804Z,93757.94
2023-04-05T07:45:17.581Z,93772.53
2023-04-05T07:47:44.327Z,93789.28
2023-04-05T07:50:15.139Z,93778.69
2023-04-05T07:52:42.797Z,93772.41
2023-04-05T07:55:10.994Z,93780.81
2023-04-05T07:57:37.828Z,93778.19
2023-04-05T08:00:10.929Z,93787.31
2023-04-05T08:02:37.747Z,93793.88
2023-04-05T08:05:05.261Z,93796.63
2023-04-05T08:07:31.927Z,93790.81
2023-04-05T08:09:59.491Z,93791.97
2023-04-05T08:12:26.730Z,93800.63
2023-04-05T08:14:53.884Z,93802.47
2023-04-05T08:17:20.582Z,93799.00
2023-04-05T08:19:47.381Z,93801.22
2023-04-05T08:22:14.075Z,93806.47
2023-04-05T08:24:40.984Z,93800.00
2023-04-05T08:27:07.647Z,93805.19
2023-04-05T08:29:34.503Z,93800.31
2023-04-05T08:32:01.291Z,93810.97
2023-04-05T08:34:27.980Z,93804.19
2023-04-05T08:36:59.579Z,93803.97
2023-04-05T08:39:27.032Z,93813.19
2023-04-05T08:42:17.961Z,93808.00
2023-04-05T08:44:46.069Z,93813.50
2023-04-05T08:47:15.410Z,93808.91
2023-04-05T08:49:45.957Z,93817.47
2023-04-05T08:52:12.679Z,93816.44
2023-04-05T08:54:39.384Z,93824.97
2023-04-05T08:57:07.731Z,93826.34
2023-04-05T08:59:38.436Z,93822.00
2023-04-05T09:02:12.293Z,93821.59
2023-04-05T09:04:44.970Z,93818.28
2023-04-05T09:07:14.353Z,93830.50
2023-04-05T09:09:46.564Z,93836.28
2023-04-05T09:12:14.423Z,93829.63
2023-04-05T09:14:41.820Z,93842.94
2023-04-05T09:17:08.534Z,93834.47
2023-04-05T09:19:35.237Z,93836.59
2023-04-05T09:22:08.735Z,93833.84
2023-04-05T09:24:43.144Z,93829.78
2023-04-05T09:27:16.930Z,93828.53
2023-04-05T09:29:45.603Z,93831.63
2023-04-05T09:32:14.354Z,93831.31
2023-04-05T09:34:42.586Z,93831.63
2023-04-05T09:37:27.172Z,93819.03
2023-04-05T09:40:04.444Z,93828.09
2023-04-05T09:42:42.955Z,93830.56
2023-04-05T09:45:09.960Z,93831.66
2023-04-05T09:47:36.770Z,93833.19
2023-04-05T09:50:23.755Z,93819.59
2023-04-05T09:52:51.724Z,93813.19
2023-04-05T09:55:28.715Z,93810.81
2023-04-05T09:57:55.420Z,93831.31
2023-04-05T10:00:22.943Z,93818.78
2023-04-05T10:02:54.069Z,93828.25
2023-04-05T10:05:25.074Z,93819.69
2023-04-05T10:07:52.568Z,93827.31
2023-04-05T10:10:21.828Z,93828.88
2023-04-05T10:12:49.826Z,93820.88
2023-04-05T10:15:18.666Z,93818.41
2023-04-05T10:18:09.059Z,93825.13
2023-04-05T10:20:40.175Z,93827.94
2023-04-05T10:23:10.428Z,93822.31
2023-04-05T10:25:36.998Z,93841.88
2023-04-05T10:28:09.481Z,93838.34
2023-04-05T10:30:40.910Z,93837.44
2023-04-05T10:33:08.052Z,93831.25
2023-04-05T10:35:37.004Z,93824.41
2023-04-05T10:38:06.332Z,93825.13
2023-04-05T10:40:33.993Z,93836.44
2023-04-05T10:43:01.125Z,93835.47
2023-04-05T10:45:29.045Z,93825.75
2023-04-05T10:48:16.194Z,93822.19
2023-04-05T10:50:44.493Z,93830.88
2023-04-05T10:53:12.336Z,93831.19
2023-04-05T10:55:39.449Z,93834.75
2023-04-05T10:58:06.554Z,93828.66
2023-04-05T11:00:34.119Z,93830.91
2023-04-05T11:03:00.908Z,93844.38
2023-04-05T11:05:33.064Z,93827.03
2023-04-05T11:08:09.942Z,93845.97
2023-04-05T11:10:38.340Z,93858.34
2023-04-05T11:13:07.103Z,93846.34
2023-04-05T11:15:35.157Z,93848.34
2023-04-05T11:18:05.642Z,93841.78
2023-04-05T11:20:43.357Z,93836.94
2023-04-05T11:23:12.240Z,93838.34
2023-04-05T11:25:42.527Z,93842.06
2023-04-05T11:28:09.355Z,93842.09
2023-04-05T11:30:53.139Z,93842.34
2023-04-05T11:33:54.781Z,93847.06
2023-04-05T11:36:45.641Z,93832.66
2023-04-05T11:39:18.348Z,93835.84
2023-04-05T11:42:12.549Z,93837.28
2023-04-05T11:44:48.011Z,93842.88
2023-04-05T11:47:21.399Z,93846.13
2023-04-05T11:49:52.142Z,93849.00
2023-04-05T11:52:21.864Z,93840.19
2023-04-05T11:54:49.801Z,93838.47
2023-04-05T11:57:21.419Z,93837.44
2023-04-05T11:59:53.225Z,93829.50
2023-04-05T12:02:21.045Z,93825.44
2023-04-05T12:04:57.732Z,93837.09
2023-04-05T12:07:27.915Z,93831.53
2023-04-05T12:10:02.717Z,93841.25
2023-04-05T12:12:38.402Z,93830.53
2023-04-05T12:15:08.717Z,93831.94
2023-04-05T12:17:39.003Z,93833.06
2023-04-05T12:20:06.741Z,93819.53
2023-04-05T12:22:33.606Z,93831.75
2023-04-05T12:25:01.020Z,93840.03
2023-04-05T12:27:27.732Z,93842.06
2023-04-05T12:30:14.869Z,93834.44
2023-04-05T12:32:42.461Z,93835.22
2023-04-05T12:35:13.749Z,93852.19
2023-04-05T12:37:41.270Z,93834.16
2023-04-05T12:40:08.881Z,93830.88
2023-04-05T12:42:36.672Z,93837.19
2023-04-05T12:45:05.574Z,93843.78
2023-04-05T12:47:36.118Z,93839.75
2023-04-05T12:50:16.554Z,93840.06
2023-04-05T12:52:53.822Z,93847.38
2023-04-05T12:55:21.567Z,93837.25
2023-04-05T12:57:53.214Z,93844.59
2023-04-05T13:00:24.600Z,93839.25
2023-04-05T13:02:53.782Z,93838.84
2023-04-05T13:05:28.711Z,93837.91
2023-04-05T13:07:55.610Z,93853.59
2023-04-05T13:10:24.436Z,93871.94
2023-04-05T13:12:51.508Z,93877.78
2023-04-05T13:15:19.147Z,93846.59
2023-04-05T13:17:49.931Z,93853.13
2023-04-05T13:20:18.021Z,93852.34
2023-04-05T13:22:48.513Z,93847.53
2023-04-05T13:25:15.541Z,93849.53
2023-04-05T13:27:42.638Z,93849.69
2023-04-05T13:30:10.062Z,93848.47
2023-04-05T13:32:36.884Z,93840.38
2023-04-05T13:35:03.697Z,93843.94
2023-04-05T13:37:30.638Z,93845.34
2023-04-05T13:39:57.287Z,93827.00
2023-04-05T13:42:24.513Z,93841.91
2023-04-05T13:44:51.229Z,93858.56
2023-04-05T13:47:17.943Z,93844.56
2023-04-05T13:49:44.584Z,93840.06
2023-04-05T13:52:11.677Z,93846.44
2023-04-05T13:54:38.379Z,93844.09
2023-04-05T13:57:05.681Z,93838.66
2023-04-05T13:59:32.530Z,93852.19
2023-04-05T14:01:59.397Z,93849.72
2023-04-05T14:04:26.179Z,93852.00
2023-04-05T14:06:53.715Z,93864.78
2023-04-05T14:09:20.412Z,93854.34
2023-04-05T14:11:47.152Z,93858.75
2023-04-05T14:14:13.780Z,93862.16
2023-04-05T14:16:40.581Z,93856.41
2023-04-05T14:19:07.393Z,93869.19
2023-04-05T14:21:34.655Z,93862.28
2023-04-05T14:24:02.214Z,93864.53
2023-04-05T14:26:28.915Z,93864.25
2023-04-05T14:28:55.611Z,93861.16
2023-04-05T14:31:23.276Z,93869.97
2023-04-05T14:33:49.937Z,93859.19
2023-04-05T14:36:16.673Z,93858.25
2023-04-05T14:38:43.395Z,93860.28
2023-04-05T14:41:10.473Z,93866.13
2023-04-05T14:43:40.676Z,93864.47
2023-04-05T14:46:07.417Z,93853.91
2023-04-05T14:48:34.216Z,93881.53
2023-04-05T14:51:01.076Z,93876.72
2023-04-05T14:53:27.837Z,93869.97
2023-04-05T14:55:54.570Z,93867.72
2023-04-05T14:58:21.233Z,93883.78
2023-04-05T15:00:49.906Z,93876.25
2023-04-05T15:03:19.684Z,93887.72
2023-04-05T15:05:47.815Z,93889.28
2023-04-05T15:08:15.142Z,93890.53
2023-04-05T15:10:45.124Z,93889.81
2023-04-05T15:13:12.941Z,93897.31
2023-04-05T15:15:39.858Z,93898.88
2023-04-05T15:18:08.242Z,93884.69
2023-04-05T15:20:35.445Z,93895.72
2023-04-05T15:23:02.249Z,93895.69
2023-04-05T15:25:28.961Z,93899.31
2023-04-05T15:27:59.630Z,93892.81
2023-04-05T15:30:27.734Z,93894.97
2023-04-05T15:32:55.588Z,93890.75
2023-04-05T15:35:22.448Z,93888.88
2023-04-05T15:37:49.208Z,93892.72
2023-04-05T15:40:16.371Z,93890.56
2023-04-05T15:42:43.063Z,93898.41
2023-04-05T15:45:10.222Z,93891.03
2023-04-05T15:47:37.163Z,93893.38
2023-04-05T15:50:04.367Z,93889.50
2023-04-05T15:52:31.149Z,93886.88
2023-04-05T15:54:57.918Z,93902.50
2023-04-05T15:57:24.970Z,93902.41
2023-04-05T15:59:53.012Z,93895.81
2023-04-05T16:02:20.112Z,93902.53
2023-04-05T16:04:46.830Z,93889.78
2023-04-05T16:07:13.540Z,93890.78
2023-04-05T16:09:40.226Z,93892.09
2023-04-05T16:12:06.868Z,93901.63
2023-04-05T16:14:33.576Z,93899.84
2023-04-05T16:17:00.976Z,93897.22
2023-04-05T16:19:27.764Z,93894.63
2023-04-05T16:21:54.549Z,93903.63
2023-04-05T16:24:21.618Z,93900.59
2023-04-05T16:26:48.591Z,93903.53
2023-04-05T16:29:15.270Z,93909.09
2023-04-05T16:31:47.045Z,93905.41
2023-04-05T16:34:14.204Z,93911.66
2023-04-05T16:36:41.860Z,93921.31
2023-04-05T16:39:08.892Z,93907.28
2023-04-05T16:41:36.369Z,93903.56
2023-04-05T16:44:03.816Z,93898.84
2023-04-05T16:46:32.231Z,93906.91
2023-04-05T16:49:00.885Z,93903.72
2023-04-05T16:51:28.156Z,93897.50
2023-04-05T16:53:55.932Z,93904.28
2023-04-05T16:56:24.273Z,93902.75
2023-04-05T16:58:51.555Z,93894.34
2023-04-05T17:01:18.313Z,93895.31
2023-04-05T17:03:47.185Z,93905.09
2023-04-05T17:06:14.876Z,93915.81
2023-04-05T17:08:42.056Z,93916.69
2023-04-05T17:11:08.890Z,93928.47
2023-04-05T17:13:35.661Z,93921.38
2023-04-05T17:16:02.483Z,93925.72
2023-04-05T17:18:29.261Z,93925.97
2023-04-05T17:20:55.946Z,93928.31
2023-04-05T17:23:24.189Z,93934.22
2023-04-05T17:25:50.855Z,93937.78
2023-04-05T17:28:17.442Z,93933.03
2023-04-05T17:30:44.198Z,93934.09
2023-04-05T17:33:11.091Z,93922.47
2023-04-05T17:35:38.156Z,93920.53
2023-04-05T17:38:04.925Z,93921.38
2023-04-05T17:40:31.698Z,93924.09
2023-04-05T17:42:58.480Z,93925.72
2023-04-05T17:45:25.172Z,93930.13
2023-04-05T17:47:54.895Z,93930.84
2023-04-05T17:50:23.743Z,93937.81
2023-04-05T17:52:58.283Z,93936.31
2023-04-05T17:55:24.997Z,93937.81
2023-04-05T17:57:58.307Z,93941.50
2023-04-05T18:00:25.508Z,93944.16
2023-04-05T18:02:52.396Z,93950.34
2023-04-05T18:05:19.338Z,93943.50
2023-04-05T18:07:46.133Z,93954.28
2023-04-05T18:10:12.906Z,93952.78
2023-04-05T18:12:39.600Z,93948.59
2023-04-05T18:15:06.827Z,93955.88
2023-04-05T18:17:33.513Z,93958.19
2023-04-05T18:20:00.191Z,93945.56
2023-04-05T18:22:27.776Z,93955.00
2023-04-05T18:24:54.474Z,93956.09
2023-04-05T18:27:21.192Z,93958.09
2023-04-05T18:29:48.694Z,93955.72
2023-04-05T18:32:16.147Z,93961.53
2023-04-05T18:34:43.111Z,93963.47
2023-04-05T18:37:09.837Z,93965.59
2023-04-05T18:39:36.590Z,93959.03
2023-04-05T18:42:03.243Z,93956.00
2023-04-05T18:44:30.071Z,93959.38
2023-04-05T18:46:58.318Z,93968.63
2023-04-05T18:49:25.191Z,93957.81
2023-04-05T18:51:52.008Z,93976.25
2023-04-05T18:54:18.920Z,93975.75
2023-04-05T18:56:46.150Z,93967.59
2023-04-05T18:59:12.887Z,93978.22
2023-04-05T19:01:39.656Z,93976.59
2023-04-05T19:04:07.480Z,93981.81
2023-04-05T19:06:35.024Z,93983.78
2023-04-05T19:09:01.857Z,93982.50
2023-04-05T19:11:31.571Z,93971.16
2023-04-05T19:14:00.481Z,93978.41
2023-04-05T19:16:27.307Z,93985.56
2023-04-05T19:18:53.973Z,93979.53
2023-04-05T19:21:20.659Z,93990.47
2023-04-05T19:23:47.363Z,93975.47
2023-04-05T19:26:14.066Z,93972.38
2023-04-05T19:28:40.929Z,93974.59
2023-04-05T19:31:09.438Z,93969.78
2023-04-05T19:33:36.299Z,93972.75
2023-04-05T19:36:03.238Z,93975.13
2023-04-05T19:38:29.906Z,93972.47
2023-04-05T19:40:56.647Z,93970.19
2023-04-05T19:43:31.695Z,93961.94
2023-04-05T19:46:00.659Z,93954.59
2023-04-05T19:48:39.379Z,93951.66
2023-04-05T19:51:08.047Z,93947.09
2023-04-05T19:53:48.447Z,93944.16
2023-04-05T19:56:16.403Z,93944.28
2023-04-05T19:58:43.497Z,93949.03
2023-04-05T20:01:10.168Z,93949.44
2023-04-05T20:03:39.480Z,93943.81
2023-04-05T20:06:13.140Z,93944.94
2023-04-05T20:08:44.485Z,93926.97
2023-04-05T20:11:14.083Z,93931.81
2023-04-05T20:13:55.259Z,93926.53
2023-04-05T20:16:33.932Z,93935.94
2023-04-05T20:19:07.079Z,93930.13
2023-04-05T20:21:34.733Z,93945.06
2023-04-05T20:24:02.219Z,93947.75
2023-04-05T20:26:32.991Z,93948.44
2023-04-05T20:29:01.855Z,93944.88
2023-04-05T20:31:33.533Z,93947.34
2023-04-05T20:34:13.837Z,93948.78
2023-04-05T20:36:50.061Z,93959.47
2023-04-05T20:39:17.556Z,93955.69
2023-04-05T20:41:45.631Z,93960.19
2023-04-05T20:44:12.405Z,93954.81
2023-04-05T20:46:39.099Z,93961.16
2023-04-05T20:49:07.276Z,93952.09
2023-04-05T20:51:34.890Z,93954.59
2023-04-05T20:54:02.303Z,93954.47
2023-04-05T20:56:29.045Z,93958.09
2023-04-05T20:58:56.199Z,93953.53
2023-04-05T21:01:26.825Z,93967.16
2023-04-05T21:03:53.686Z,93961.88
2023-04-05T21:06:20.683Z,93957.28
2023-04-05T21:08:47.319Z,93960.88
2023-04-05T21:11:16.346Z,93959.03
2023-04-05T21:13:43.527Z,93959.75
2023-04-05T21:16:10.638Z,93958.22
2023-04-05T21:18:37.409Z,93964.09
2023-04-05T21:21:10.545Z,93965.91
2023-04-05T21:23:37.244Z,93959.91
2023-04-05T21:26:07.359Z,93965.41
2023-04-05T21:28:34.363Z,93964.34
2023-04-05T21:31:02.289Z,93963.22
2023-04-05T21:33:29.084Z,93959.75
2023-04-05T21:35:55.898Z,93959.72
2023-04-05T21:38:22.721Z,93963.28
2023-04-05T21:40:50.954Z,93970.28
2023-04-05T21:43:17.633Z,93966.19
2023-04-05T21:45:44.332Z,93968.63
2023-04-05T21:48:11.125Z,93970.53
2023-04-05T21:50:37.783Z,93971.19
2023-04-05T21:53:17.390Z,93961.09
2023-04-05T21:55:50.228Z,93957.78
2023-04-05T21:58:16.864Z,93953.59
2023-04-05T22:00:43.500Z,93956.69
2023-04-05T22:03:10.244Z,93949.72
2023-04-05T22:05:38.635Z,93938.28
2023-04-05T22:08:06.719Z,93945.84
2023-04-05T22:10:34.131Z,93946.13
2023-04-05T22:13:00.992Z,93944.94
2023-04-05T22:15:27.663Z,93944.88
2023-04-05T22:17:55.613Z,93939.69
2023-04-05T22:20:22.262Z,93939.00
2023-04-05T22:22:48.968Z,93943.91
2023-04-05T22:25:15.985Z,93937.94
2023-04-05T22:27:42.626Z,93938.28
2023-04-05T22:30:09.488Z,93931.75
2023-04-05T22:32:36.738Z,93929.00
2023-04-05T22:35:04.586Z,93922.69
2023-04-05T22:37:35.735Z,93924.31
2023-04-05T22:40:04.500Z,93936.09
2023-04-05T22:42:31.237Z,93929.44
2023-04-05T22:44:57.993Z,93930.31
2023-04-05T22:47:24.915Z,93934.63
2023-04-05T22:49:52.245Z,93925.41
2023-04-05T22:52:19.006Z,93924.13
2023-04-05T22:54:45.724Z,93910.91
2023-04-05T22:57:12.902Z,93914.69
2023-04-05T22:59:39.671Z,93909.03
2023-04-05T23:02:06.458Z,93909.88
2023-04-05T23:04:33.210Z,93909.53
2023-04-05T23:06:59.881Z,93908.25
2023-04-05T23:09:27.362Z,93906.94
2023-04-05T23:11:54.008Z,93903.13
2023-04-05T23:14:20.695Z,93900.69
2023-04-05T23:16:47.316Z,93902.25
2023-04-05T23:19:14.046Z,93895.41
2023-04-05T23:21:40.896Z,93898.41
2023-04-05T23:24:07.826Z,93889.94
2023-04-05T23:26:34.508Z,93894.38
2023-04-05T23:29:01.243Z,93894.16
2023-04-05T23:31:28.030Z,93890.34
2023-04-05T23:33:55.944Z,93893.81
2023-04-05T23:36:22.610Z,93885.75
2023-04-05T23:38:49.295Z,93885.47
2023-04-05T23:41:16.148Z,93888.78
2023-04-05T23:43:42.823Z,93886.38
2023-04-05T23:46:09.441Z,93880.81
2023-04-05T23:48:36.493Z,93876.69
2023-04-05T23:51:03.424Z,93878.16
2023-04-05T23:53:30.545Z,93883.72
2023-04-05T23:55:57.220Z,93870.44
2023-04-05T23:58:24.093Z,93864.97
